sensor_id;sensor_type;location;lat;lon;timestamp;temperature;humidity
22426;DHT22;11380;50.822;15.790;2023-06-24T00:01:22;15.60;99.90
22426;DHT22;11380;50.822;15.790;2023-06-24T00:06:29;15.60;99.90
22426;DHT22;11380;50.822;15.790;2023-06-24T00:11:36;15.30;99.90
22426;DHT22;11380;50.822;15.790;2023-06-24T00:16:43;15.40;99.90
22426;DHT22;11380;50.822;15.790;2023-06-24T00:21:52;15.60;99.90
22426;DHT22;11380;50.822;15.790;2023-06-24T00:26:59;15.60;99.90
22426;DHT22;11380;50.822;15.790;2023-06-24T00:32:07;15.50;99.90
22426;DHT22;11380;50.822;15.790;2023-06-24T00:37:14;15.10;99.90
22426;DHT22;11380;50.822;15.790;2023-06-24T00:42:22;15.20;99.90
22426;DHT22;11380;50.822;15.790;2023-06-24T00:47:29;15.20;99.90
22426;DHT22;11380;50.822;15.790;2023-06-24T00:52:39;15.20;99.90
22426;DHT22;11380;50.822;15.790;2023-06-24T00:57:49;15.10;99.90
22426;DHT22;11380;50.822;15.790;2023-06-24T01:02:58;15.10;99.90
22426;DHT22;11380;50.822;15.790;2023-06-24T01:08:06;15.00;99.90
22426;DHT22;11380;50.822;15.790;2023-06-24T01:13:13;14.70;99.90
22426;DHT22;11380;50.822;15.790;2023-06-24T01:18:30;14.70;99.90
22426;DHT22;11380;50.822;15.790;2023-06-24T01:29:20;14.60;99.90
22426;DHT22;11380;50.822;15.790;2023-06-24T01:34:34;14.80;99.90
22426;DHT22;11380;50.822;15.790;2023-06-24T01:40:05;14.70;99.90
22426;DHT22;11380;50.822;15.790;2023-06-24T01:45:21;14.60;99.90
22426;DHT22;11380;50.822;15.790;2023-06-24T01:50:32;14.70;99.90
22426;DHT22;11380;50.822;15.790;2023-06-24T01:55:42;14.70;99.90
22426;DHT22;11380;50.822;15.790;2023-06-24T02:00:50;14.60;99.90
22426;DHT22;11380;50.822;15.790;2023-06-24T02:05:59;14.40;99.90
22426;DHT22;11380;50.822;15.790;2023-06-24T02:11:09;14.40;99.90
22426;DHT22;11380;50.822;15.790;2023-06-24T02:16:17;14.40;99.90
22426;DHT22;11380;50.822;15.790;2023-06-24T02:21:26;14.50;99.90
22426;DHT22;11380;50.822;15.790;2023-06-24T02:26:34;14.40;99.90
22426;DHT22;11380;50.822;15.790;2023-06-24T02:31:43;14.20;99.90
22426;DHT22;11380;50.822;15.790;2023-06-24T02:36:51;14.20;99.90
22426;DHT22;11380;50.822;15.790;2023-06-24T02:41:58;14.20;99.90
22426;DHT22;11380;50.822;15.790;2023-06-24T02:47:07;14.10;99.90
22426;DHT22;11380;50.822;15.790;2023-06-24T02:52:17;14.20;99.90
22426;DHT22;11380;50.822;15.790;2023-06-24T02:57:25;14.40;99.90
22426;DHT22;11380;50.822;15.790;2023-06-24T03:02:34;14.40;99.90
22426;DHT22;11380;50.822;15.790;2023-06-24T03:07:41;14.50;99.90
22426;DHT22;11380;50.822;15.790;2023-06-24T03:12:49;14.30;99.90
22426;DHT22;11380;50.822;15.790;2023-06-24T03:17:56;14.40;99.90
22426;DHT22;11380;50.822;15.790;2023-06-24T03:23:05;14.20;99.90
22426;DHT22;11380;50.822;15.790;2023-06-24T03:28:12;14.10;99.90
22426;DHT22;11380;50.822;15.790;2023-06-24T03:33:18;14.40;99.90
22426;DHT22;11380;50.822;15.790;2023-06-24T03:38:25;14.50;99.90
22426;DHT22;11380;50.822;15.790;2023-06-24T03:43:32;14.30;99.90
22426;DHT22;11380;50.822;15.790;2023-06-24T03:48:39;14.30;99.90
22426;DHT22;11380;50.822;15.790;2023-06-24T03:53:46;14.20;99.90
22426;DHT22;11380;50.822;15.790;2023-06-24T03:58:54;14.00;99.90
22426;DHT22;11380;50.822;15.790;2023-06-24T04:04:01;14.00;99.90
22426;DHT22;11380;50.822;15.790;2023-06-24T04:09:09;14.20;99.90
22426;DHT22;11380;50.822;15.790;2023-06-24T04:14:15;14.50;99.90
22426;DHT22;11380;50.822;15.790;2023-06-24T04:19:23;14.60;99.90
22426;DHT22;11380;50.822;15.790;2023-06-24T04:24:30;14.50;99.90
22426;DHT22;11380;50.822;15.790;2023-06-24T04:29:37;14.40;99.90
22426;DHT22;11380;50.822;15.790;2023-06-24T04:34:45;14.60;99.90
22426;DHT22;11380;50.822;15.790;2023-06-24T04:39:54;14.60;99.90
22426;DHT22;11380;50.822;15.790;2023-06-24T04:45:01;14.90;99.90
22426;DHT22;11380;50.822;15.790;2023-06-24T04:50:10;15.30;99.90
22426;DHT22;11380;50.822;15.790;2023-06-24T04:55:17;15.20;99.90
22426;DHT22;11380;50.822;15.790;2023-06-24T05:00:24;15.40;99.90
22426;DHT22;11380;50.822;15.790;2023-06-24T05:05:31;15.60;99.90
22426;DHT22;11380;50.822;15.790;2023-06-24T05:10:39;15.70;99.90
22426;DHT22;11380;50.822;15.790;2023-06-24T05:15:46;15.70;99.90
22426;DHT22;11380;50.822;15.790;2023-06-24T05:20:53;15.60;99.90
22426;DHT22;11380;50.822;15.790;2023-06-24T05:26:00;15.80;99.90
22426;DHT22;11380;50.822;15.790;2023-06-24T05:31:08;16.10;99.90
22426;DHT22;11380;50.822;15.790;2023-06-24T05:36:15;16.00;99.90
22426;DHT22;11380;50.822;15.790;2023-06-24T05:41:23;16.00;99.90
22426;DHT22;11380;50.822;15.790;2023-06-24T05:46:31;16.10;99.90
22426;DHT22;11380;50.822;15.790;2023-06-24T05:51:38;16.00;99.90
22426;DHT22;11380;50.822;15.790;2023-06-24T05:56:46;15.60;99.90
22426;DHT22;11380;50.822;15.790;2023-06-24T06:01:53;15.50;99.90
22426;DHT22;11380;50.822;15.790;2023-06-24T06:07:00;15.40;99.90
22426;DHT22;11380;50.822;15.790;2023-06-24T06:12:07;15.70;99.90
22426;DHT22;11380;50.822;15.790;2023-06-24T06:17:15;16.00;99.90
22426;DHT22;11380;50.822;15.790;2023-06-24T06:22:23;16.20;99.90
22426;DHT22;11380;50.822;15.790;2023-06-24T06:27:30;16.40;99.90
22426;DHT22;11380;50.822;15.790;2023-06-24T06:32:37;16.60;99.90
22426;DHT22;11380;50.822;15.790;2023-06-24T06:37:44;16.60;99.90
22426;DHT22;11380;50.822;15.790;2023-06-24T06:42:53;16.90;99.90
22426;DHT22;11380;50.822;15.790;2023-06-24T06:48:02;16.90;99.90
22426;DHT22;11380;50.822;15.790;2023-06-24T06:53:11;16.80;99.90
22426;DHT22;11380;50.822;15.790;2023-06-24T06:58:17;17.10;99.90
22426;DHT22;11380;50.822;15.790;2023-06-24T07:03:24;17.10;99.90
22426;DHT22;11380;50.822;15.790;2023-06-24T07:08:34;17.20;99.90
22426;DHT22;11380;50.822;15.790;2023-06-24T07:13:42;17.10;99.90
22426;DHT22;11380;50.822;15.790;2023-06-24T07:18:51;17.00;99.90
22426;DHT22;11380;50.822;15.790;2023-06-24T07:23:57;17.10;99.90
22426;DHT22;11380;50.822;15.790;2023-06-24T07:29:08;17.20;99.90
22426;DHT22;11380;50.822;15.790;2023-06-24T07:34:15;17.40;99.90
22426;DHT22;11380;50.822;15.790;2023-06-24T07:39:23;17.50;99.90
22426;DHT22;11380;50.822;15.790;2023-06-24T07:44:31;17.60;99.90
22426;DHT22;11380;50.822;15.790;2023-06-24T07:49:38;17.70;99.90
22426;DHT22;11380;50.822;15.790;2023-06-24T07:54:45;18.00;99.90
22426;DHT22;11380;50.822;15.790;2023-06-24T07:59:52;18.50;97.80
22426;DHT22;11380;50.822;15.790;2023-06-24T08:05:01;18.80;24.00
22426;DHT22;11380;50.822;15.790;2023-06-24T08:10:08;19.00;1.00
22426;DHT22;11380;50.822;15.790;2023-06-24T08:15:15;18.80;1.00
22426;DHT22;11380;50.822;15.790;2023-06-24T08:20:24;18.40;1.00
22426;DHT22;11380;50.822;15.790;2023-06-24T08:25:31;18.60;1.00
22426;DHT22;11380;50.822;15.790;2023-06-24T08:30:39;18.90;1.00
22426;DHT22;11380;50.822;15.790;2023-06-24T08:35:45;19.10;1.00
22426;DHT22;11380;50.822;15.790;2023-06-24T08:40:52;19.10;1.00
22426;DHT22;11380;50.822;15.790;2023-06-24T08:46:00;19.50;1.00
22426;DHT22;11380;50.822;15.790;2023-06-24T08:51:08;19.40;1.00
22426;DHT22;11380;50.822;15.790;2023-06-24T08:56:17;19.00;1.00
22426;DHT22;11380;50.822;15.790;2023-06-24T09:01:25;19.50;1.00
22426;DHT22;11380;50.822;15.790;2023-06-24T09:06:33;19.60;1.00
22426;DHT22;11380;50.822;15.790;2023-06-24T09:11:41;19.80;1.00
22426;DHT22;11380;50.822;15.790;2023-06-24T09:16:56;20.10;1.00
22426;DHT22;11380;50.822;15.790;2023-06-24T09:22:08;20.40;1.00
22426;DHT22;11380;50.822;15.790;2023-06-24T09:27:20;21.40;1.00
22426;DHT22;11380;50.822;15.790;2023-06-24T09:32:30;20.60;1.00
22426;DHT22;11380;50.822;15.790;2023-06-24T09:37:38;20.60;1.00
22426;DHT22;11380;50.822;15.790;2023-06-24T09:42:58;20.30;1.00
22426;DHT22;11380;50.822;15.790;2023-06-24T09:48:09;20.40;1.00
22426;DHT22;11380;50.822;15.790;2023-06-24T09:53:17;20.60;1.00
22426;DHT22;11380;50.822;15.790;2023-06-24T09:58:25;22.20;1.00
22426;DHT22;11380;50.822;15.790;2023-06-24T10:03:36;21.40;1.00
22426;DHT22;11380;50.822;15.790;2023-06-24T10:08:43;20.50;1.00
22426;DHT22;11380;50.822;15.790;2023-06-24T10:13:51;20.40;1.00
22426;DHT22;11380;50.822;15.790;2023-06-24T10:19:01;21.70;1.00
22426;DHT22;11380;50.822;15.790;2023-06-24T10:24:10;23.00;1.00
22426;DHT22;11380;50.822;15.790;2023-06-24T10:29:21;22.40;1.00
22426;DHT22;11380;50.822;15.790;2023-06-24T10:34:42;22.10;1.00
22426;DHT22;11380;50.822;15.790;2023-06-24T10:39:53;22.60;1.00
22426;DHT22;11380;50.822;15.790;2023-06-24T10:45:12;23.30;1.00
22426;DHT22;11380;50.822;15.790;2023-06-24T10:50:20;23.70;1.00
22426;DHT22;11380;50.822;15.790;2023-06-24T10:55:28;23.70;1.00
22426;DHT22;11380;50.822;15.790;2023-06-24T11:00:35;22.40;1.00
22426;DHT22;11380;50.822;15.790;2023-06-24T11:05:44;22.20;1.00
22426;DHT22;11380;50.822;15.790;2023-06-24T11:10:52;23.50;1.00
22426;DHT22;11380;50.822;15.790;2023-06-24T11:16:00;23.10;1.00
22426;DHT22;11380;50.822;15.790;2023-06-24T11:21:09;23.30;1.00
22426;DHT22;11380;50.822;15.790;2023-06-24T11:26:17;23.20;1.00
22426;DHT22;11380;50.822;15.790;2023-06-24T11:31:28;22.40;1.00
22426;DHT22;11380;50.822;15.790;2023-06-24T11:36:38;23.40;1.00
22426;DHT22;11380;50.822;15.790;2023-06-24T11:41:45;23.90;1.00
22426;DHT22;11380;50.822;15.790;2023-06-24T11:46:53;24.30;1.00
22426;DHT22;11380;50.822;15.790;2023-06-24T11:52:03;24.40;1.00
22426;DHT22;11380;50.822;15.790;2023-06-24T11:57:10;24.90;1.00
22426;DHT22;11380;50.822;15.790;2023-06-24T12:02:20;25.20;1.00
22426;DHT22;11380;50.822;15.790;2023-06-24T12:07:27;24.50;1.00
22426;DHT22;11380;50.822;15.790;2023-06-24T12:12:35;24.20;1.00
22426;DHT22;11380;50.822;15.790;2023-06-24T12:17:42;23.60;1.00
22426;DHT22;11380;50.822;15.790;2023-06-24T12:22:49;22.80;1.00
22426;DHT22;11380;50.822;15.790;2023-06-24T12:27:56;24.00;1.00
22426;DHT22;11380;50.822;15.790;2023-06-24T12:33:06;24.40;1.00
22426;DHT22;11380;50.822;15.790;2023-06-24T12:38:16;24.70;1.00
22426;DHT22;11380;50.822;15.790;2023-06-24T12:43:23;24.50;1.00
22426;DHT22;11380;50.822;15.790;2023-06-24T12:48:30;24.70;1.00
22426;DHT22;11380;50.822;15.790;2023-06-24T12:53:38;24.00;1.00
22426;DHT22;11380;50.822;15.790;2023-06-24T12:58:44;24.50;1.00
22426;DHT22;11380;50.822;15.790;2023-06-24T13:03:51;24.40;1.00
22426;DHT22;11380;50.822;15.790;2023-06-24T13:08:58;24.50;1.00
22426;DHT22;11380;50.822;15.790;2023-06-24T13:14:06;24.80;1.00
22426;DHT22;11380;50.822;15.790;2023-06-24T13:19:14;24.50;1.00
22426;DHT22;11380;50.822;15.790;2023-06-24T13:24:23;25.20;1.00
22426;DHT22;11380;50.822;15.790;2023-06-24T13:29:33;24.40;1.00
22426;DHT22;11380;50.822;15.790;2023-06-24T13:34:40;24.50;1.00
22426;DHT22;11380;50.822;15.790;2023-06-24T13:39:50;24.00;1.00
22426;DHT22;11380;50.822;15.790;2023-06-24T13:44:57;23.70;1.00
22426;DHT22;11380;50.822;15.790;2023-06-24T13:50:05;24.50;1.00
22426;DHT22;11380;50.822;15.790;2023-06-24T13:55:14;24.70;1.00
22426;DHT22;11380;50.822;15.790;2023-06-24T14:00:21;24.30;1.00
22426;DHT22;11380;50.822;15.790;2023-06-24T14:05:28;24.40;1.00
22426;DHT22;11380;50.822;15.790;2023-06-24T14:10:35;24.30;1.00
22426;DHT22;11380;50.822;15.790;2023-06-24T14:15:42;24.80;1.00
22426;DHT22;11380;50.822;15.790;2023-06-24T14:20:50;24.40;1.00
22426;DHT22;11380;50.822;15.790;2023-06-24T14:25:57;24.70;1.00
22426;DHT22;11380;50.822;15.790;2023-06-24T14:31:05;24.50;1.00
22426;DHT22;11380;50.822;15.790;2023-06-24T14:36:12;25.00;1.00
22426;DHT22;11380;50.822;15.790;2023-06-24T14:41:21;24.60;1.00
22426;DHT22;11380;50.822;15.790;2023-06-24T14:46:27;24.00;1.00
22426;DHT22;11380;50.822;15.790;2023-06-24T14:51:35;24.30;1.00
22426;DHT22;11380;50.822;15.790;2023-06-24T14:56:41;24.60;1.00
22426;DHT22;11380;50.822;15.790;2023-06-24T15:01:49;23.80;1.00
22426;DHT22;11380;50.822;15.790;2023-06-24T15:06:57;23.70;1.00
22426;DHT22;11380;50.822;15.790;2023-06-24T15:12:05;24.10;1.00
22426;DHT22;11380;50.822;15.790;2023-06-24T15:17:13;24.00;1.00
22426;DHT22;11380;50.822;15.790;2023-06-24T15:22:20;24.30;1.00
22426;DHT22;11380;50.822;15.790;2023-06-24T15:27:28;24.30;1.00
22426;DHT22;11380;50.822;15.790;2023-06-24T15:32:35;23.60;1.00
22426;DHT22;11380;50.822;15.790;2023-06-24T15:37:42;23.60;1.00
22426;DHT22;11380;50.822;15.790;2023-06-24T15:42:49;23.30;1.00
22426;DHT22;11380;50.822;15.790;2023-06-24T15:47:56;23.70;1.00
22426;DHT22;11380;50.822;15.790;2023-06-24T15:53:04;23.90;1.00
22426;DHT22;11380;50.822;15.790;2023-06-24T15:58:14;23.70;1.00
22426;DHT22;11380;50.822;15.790;2023-06-24T16:03:22;24.00;1.00
22426;DHT22;11380;50.822;15.790;2023-06-24T16:08:30;23.50;1.00
22426;DHT22;11380;50.822;15.790;2023-06-24T16:13:37;23.00;1.00
22426;DHT22;11380;50.822;15.790;2023-06-24T16:18:46;22.90;1.00
22426;DHT22;11380;50.822;15.790;2023-06-24T16:23:52;23.20;1.00
22426;DHT22;11380;50.822;15.790;2023-06-24T16:28:59;23.20;1.00
22426;DHT22;11380;50.822;15.790;2023-06-24T16:34:08;23.10;1.00
22426;DHT22;11380;50.822;15.790;2023-06-24T16:39:16;22.90;1.00
22426;DHT22;11380;50.822;15.790;2023-06-24T16:44:24;23.20;1.00
22426;DHT22;11380;50.822;15.790;2023-06-24T16:49:32;23.10;1.00
22426;DHT22;11380;50.822;15.790;2023-06-24T16:54:38;23.00;1.00
22426;DHT22;11380;50.822;15.790;2023-06-24T16:59:46;23.00;1.00
22426;DHT22;11380;50.822;15.790;2023-06-24T17:04:54;22.70;1.00
22426;DHT22;11380;50.822;15.790;2023-06-24T17:10:01;22.60;1.00
22426;DHT22;11380;50.822;15.790;2023-06-24T17:15:09;22.40;1.00
22426;DHT22;11380;50.822;15.790;2023-06-24T17:20:16;22.10;1.00
22426;DHT22;11380;50.822;15.790;2023-06-24T17:25:24;21.90;1.00
22426;DHT22;11380;50.822;15.790;2023-06-24T17:30:32;21.80;1.00
22426;DHT22;11380;50.822;15.790;2023-06-24T17:35:39;21.70;1.00
22426;DHT22;11380;50.822;15.790;2023-06-24T17:40:46;21.80;1.00
22426;DHT22;11380;50.822;15.790;2023-06-24T17:45:53;21.80;1.00
22426;DHT22;11380;50.822;15.790;2023-06-24T17:51:00;21.80;1.00
22426;DHT22;11380;50.822;15.790;2023-06-24T17:56:08;21.60;1.00
22426;DHT22;11380;50.822;15.790;2023-06-24T18:01:14;21.30;1.00
22426;DHT22;11380;50.822;15.790;2023-06-24T18:06:22;21.20;1.00
22426;DHT22;11380;50.822;15.790;2023-06-24T18:11:31;21.10;1.00
22426;DHT22;11380;50.822;15.790;2023-06-24T18:16:51;20.90;1.00
22426;DHT22;11380;50.822;15.790;2023-06-24T18:21:57;21.00;1.00
22426;DHT22;11380;50.822;15.790;2023-06-24T18:27:06;20.90;1.00
22426;DHT22;11380;50.822;15.790;2023-06-24T18:32:14;20.70;1.00
22426;DHT22;11380;50.822;15.790;2023-06-24T18:37:21;20.60;1.00
22426;DHT22;11380;50.822;15.790;2023-06-24T18:42:28;20.40;1.00
22426;DHT22;11380;50.822;15.790;2023-06-24T18:47:53;20.30;1.00
22426;DHT22;11380;50.822;15.790;2023-06-24T18:53:00;20.20;1.00
22426;DHT22;11380;50.822;15.790;2023-06-24T18:58:08;19.70;1.00
22426;DHT22;11380;50.822;15.790;2023-06-24T19:03:16;19.40;1.00
22426;DHT22;11380;50.822;15.790;2023-06-24T19:08:24;19.20;1.00
22426;DHT22;11380;50.822;15.790;2023-06-24T19:13:31;19.10;1.00
22426;DHT22;11380;50.822;15.790;2023-06-24T19:18:39;18.90;1.00
22426;DHT22;11380;50.822;15.790;2023-06-24T19:23:47;18.60;1.00
22426;DHT22;11380;50.822;15.790;2023-06-24T19:28:55;18.30;1.00
22426;DHT22;11380;50.822;15.790;2023-06-24T19:34:02;18.10;1.00
22426;DHT22;11380;50.822;15.790;2023-06-24T19:39:09;18.10;1.00
22426;DHT22;11380;50.822;15.790;2023-06-24T19:44:17;17.80;1.00
22426;DHT22;11380;50.822;15.790;2023-06-24T19:49:24;17.90;1.00
22426;DHT22;11380;50.822;15.790;2023-06-24T19:54:32;17.70;1.00
22426;DHT22;11380;50.822;15.790;2023-06-24T19:59:40;17.40;1.00
22426;DHT22;11380;50.822;15.790;2023-06-24T20:04:48;17.20;1.00
22426;DHT22;11380;50.822;15.790;2023-06-24T20:09:56;17.20;1.00
22426;DHT22;11380;50.822;15.790;2023-06-24T20:15:03;17.20;1.00
22426;DHT22;11380;50.822;15.790;2023-06-24T20:20:11;17.10;1.00
22426;DHT22;11380;50.822;15.790;2023-06-24T20:25:19;17.10;1.00
22426;DHT22;11380;50.822;15.790;2023-06-24T20:30:26;16.90;1.00
22426;DHT22;11380;50.822;15.790;2023-06-24T20:35:34;16.70;1.00
22426;DHT22;11380;50.822;15.790;2023-06-24T20:40:42;16.60;1.00
22426;DHT22;11380;50.822;15.790;2023-06-24T20:45:51;16.60;1.00
22426;DHT22;11380;50.822;15.790;2023-06-24T20:51:00;16.10;1.00
22426;DHT22;11380;50.822;15.790;2023-06-24T20:56:08;16.10;1.00
22426;DHT22;11380;50.822;15.790;2023-06-24T21:01:16;15.90;1.00
22426;DHT22;11380;50.822;15.790;2023-06-24T21:06:24;15.90;1.00
22426;DHT22;11380;50.822;15.790;2023-06-24T21:11:35;15.60;1.00
22426;DHT22;11380;50.822;15.790;2023-06-24T21:16:42;15.30;1.00
22426;DHT22;11380;50.822;15.790;2023-06-24T21:21:50;15.10;1.00
22426;DHT22;11380;50.822;15.790;2023-06-24T21:26:57;15.00;1.00
22426;DHT22;11380;50.822;15.790;2023-06-24T21:32:05;15.00;1.00
22426;DHT22;11380;50.822;15.790;2023-06-24T21:37:13;14.90;1.00
22426;DHT22;11380;50.822;15.790;2023-06-24T21:42:19;14.70;1.00
22426;DHT22;11380;50.822;15.790;2023-06-24T21:47:27;14.70;1.00
22426;DHT22;11380;50.822;15.790;2023-06-24T21:52:35;14.60;1.00
22426;DHT22;11380;50.822;15.790;2023-06-24T21:57:42;14.50;1.00
22426;DHT22;11380;50.822;15.790;2023-06-24T22:02:49;14.50;1.00
22426;DHT22;11380;50.822;15.790;2023-06-24T22:07:56;14.40;1.00
22426;DHT22;11380;50.822;15.790;2023-06-24T22:13:06;14.30;1.00
22426;DHT22;11380;50.822;15.790;2023-06-24T22:18:14;14.20;1.00
22426;DHT22;11380;50.822;15.790;2023-06-24T22:23:21;13.90;21.60
22426;DHT22;11380;50.822;15.790;2023-06-24T22:28:29;14.00;1.00
22426;DHT22;11380;50.822;15.790;2023-06-24T22:33:37;14.10;1.00
22426;DHT22;11380;50.822;15.790;2023-06-24T22:38:44;14.20;1.00
22426;DHT22;11380;50.822;15.790;2023-06-24T22:43:53;14.20;1.00
22426;DHT22;11380;50.822;15.790;2023-06-24T22:49:00;14.40;1.00
22426;DHT22;11380;50.822;15.790;2023-06-24T22:54:08;14.30;1.00
22426;DHT22;11380;50.822;15.790;2023-06-24T22:59:15;14.30;1.00
22426;DHT22;11380;50.822;15.790;2023-06-24T23:04:23;14.30;1.00
22426;DHT22;11380;50.822;15.790;2023-06-24T23:09:31;14.20;1.00
22426;DHT22;11380;50.822;15.790;2023-06-24T23:14:40;14.30;1.00
22426;DHT22;11380;50.822;15.790;2023-06-24T23:19:48;14.30;1.00
22426;DHT22;11380;50.822;15.790;2023-06-24T23:24:56;14.30;1.00
22426;DHT22;11380;50.822;15.790;2023-06-24T23:30:05;14.20;1.00
22426;DHT22;11380;50.822;15.790;2023-06-24T23:35:14;14.20;1.00
22426;DHT22;11380;50.822;15.790;2023-06-24T23:40:22;14.20;1.00
22426;DHT22;11380;50.822;15.790;2023-06-24T23:45:30;13.90;1.00
22426;DHT22;11380;50.822;15.790;2023-06-24T23:50:38;14.00;1.00
22426;DHT22;11380;50.822;15.790;2023-06-24T23:55:45;14.10;1.00
